Time;durP1;ratioP1;P1;durP2;ratioP2;P2;SDS_P1;SDS_P2;PMS_P1;PMS_P2;Temp;Humidity;BMP_temperature;BMP_pressure;BME280_temperature;BME280_humidity;BME280_pressure;Samples;Min_cycle;Max_cycle;Signal;HPM_P1;HPM_P2
2022/08/29 00:00:24;;;;;;;;;;;;;;;;;;;;;
2022/08/29 00:06:37;;;;;;;8.05;3.25;;;;;;;20.72;100.00;100671.69;4923909;29;20039;-89
2022/08/29 00:09:03;;;;;;;6.55;3.63;;;;;;;20.74;100.00;100673.13;4909771;29;20175;-92
2022/08/29 00:11:33;;;;;;;5.40;3.97;;;;;;;20.73;100.00;100668.03;4922830;29;20103;-90
2022/08/29 00:15:09;;;;;;;;;;;;;;;;;;;;;
2022/08/29 00:22:26;;;;;;;7.55;3.42;;;;;;;20.63;100.00;100655.22;4905400;29;20130;-89
2022/08/29 00:25:21;;;;;;;3.55;3.25;;;;;;;20.63;100.00;100657.03;4901905;29;20246;-89
2022/08/29 00:29:20;;;;;;;6.40;3.88;;;;;;;20.60;100.00;100652.97;4882501;29;20153;-89
2022/08/29 00:31:37;;;;;;;9.85;3.88;;;;;;;20.59;100.00;100658.47;4825784;29;20045;-88
2022/08/29 00:34:03;;;;;;;6.18;3.17;;;;;;;20.57;100.00;100656.03;4828846;29;20053;-89
2022/08/29 00:36:28;;;;;;;7.28;3.53;;;;;;;20.56;100.00;100653.59;4816979;29;20173;-88
2022/08/29 00:38:57;;;;;;;4.28;3.50;;;;;;;20.54;100.00;100651.97;4816565;29;20045;-89
2022/08/29 00:44:43;;;;;;;6.93;3.55;;;;;;;20.49;100.00;100648.28;4818557;29;20582;-89
2022/08/29 00:47:17;;;;;;;4.55;3.47;;;;;;;20.48;100.00;100650.13;4802191;29;20050;-88
2022/08/29 00:53:01;;;;;;;4.05;3.60;;;;;;;20.48;100.00;100659.91;4782417;29;20115;-88
2022/08/29 00:59:04;;;;;;;6.00;3.55;;;;;;;20.48;100.00;100649.31;4812088;29;20797;-88
2022/08/29 01:02:44;;;;;;;;;;;;;;;;;;;;;
2022/08/29 01:05:27;;;;;;;4.97;3.28;;;;;;;20.47;100.00;100645.84;4808521;29;20061;-89
2022/08/29 01:08:22;;;;;;;7.82;4.10;;;;;;;20.44;100.00;100650.72;4864463;29;20541;-90
2022/08/29 01:14:58;;;;;;;6.72;3.22;;;;;;;20.43;100.00;100643.81;4871952;29;20158;-89
2022/08/29 01:21:01;;;;;;;6.93;2.85;;;;;;;20.50;100.00;100652.56;4848001;29;20101;-88
2022/08/29 01:24:18;;;;;;;4.90;3.30;;;;;;;20.62;100.00;100656.22;4851058;29;20342;-88
2022/08/29 01:26:50;;;;;;;4.57;3.58;;;;;;;20.66;100.00;100657.44;4814292;29;20078;-88
2022/08/29 01:29:16;;;;;;;6.43;3.63;;;;;;;20.61;100.00;100654.59;4806838;29;20183;-88
2022/08/29 01:31:52;;;;;;;6.22;3.83;;;;;;;20.58;100.00;100656.84;4836072;29;20061;-86
2022/08/29 01:34:23;;;;;;;5.63;3.08;;;;;;;20.56;100.00;100658.88;4804808;29;20148;-88
2022/08/29 01:37:46;;;;;;;6.40;3.40;;;;;;;20.68;100.00;100659.88;4831151;29;20052;-89
2022/08/29 01:44:25;;;;;;;4.93;2.88;;;;;;;20.68;100.00;100652.75;4851621;29;20470;-91
2022/08/29 01:47:23;;;;;;;8.40;3.35;;;;;;;20.69;100.00;100659.69;4834914;29;20037;-89
2022/08/29 01:50:20;;;;;;;5.97;3.75;;;;;;;20.59;100.00;100661.94;4868114;29;20513;-89
2022/08/29 01:53:06;;;;;;;8.10;3.47;;;;;;;20.54;100.00;100662.53;4814430;29;20042;-89
2022/08/29 02:02:37;;;;;;;;;;;;;;;;;;;;;
2022/08/29 02:08:04;;;;;;;3.75;3.35;;;;;;;20.59;100.00;100682.28;4846159;29;20073;-89
2022/08/29 02:10:50;;;;;;;5.55;3.58;;;;;;;20.63;100.00;100681.69;4850284;29;20105;-89
2022/08/29 02:17:52;;;;;;;10.48;4.05;;;;;;;20.61;100.00;100683.72;4847843;29;20132;-87
2022/08/29 02:34:37;;;;;;;;;;;;;;;;;;;;;
2022/08/29 02:52:10;;;;;;;4.68;3.13;;;;;;;20.43;100.00;100692.25;4755365;30;20617;-87
2022/08/29 02:58:40;;;;;;;9.98;3.97;;;;;;;20.53;100.00;100697.16;4741652;30;20156;-87
2022/08/29 03:01:26;;;;;;;4.75;3.08;;;;;;;20.55;100.00;100705.72;4737952;30;20059;-88
2022/08/29 03:03:53;;;;;;;6.75;3.80;;;;;;;20.58;100.00;100694.72;4739465;30;20048;-90
2022/08/29 03:09:47;;;;;;;7.57;3.58;;;;;;;20.56;100.00;100703.88;4741427;30;20135;-87
2022/08/29 03:12:18;;;;;;;8.35;4.07;;;;;;;20.56;100.00;100696.75;4791501;29;20043;-91
2022/08/29 03:14:57;;;;;;;5.72;4.07;;;;;;;20.54;100.00;100701.44;4779108;29;20322;-88
2022/08/29 03:18:02;;;;;;;5.55;3.42;;;;;;;20.53;100.00;100705.09;4797717;29;20485;-90
2022/08/29 03:20:56;;;;;;;5.75;3.65;;;;;;;20.51;100.00;100709.78;4791660;29;20086;-88
2022/08/29 03:23:22;;;;;;;7.72;3.95;;;;;;;20.54;100.00;100709.38;4833516;29;20406;-88
2022/08/29 03:25:49;;;;;;;7.75;4.28;;;;;;;20.56;100.00;100706.53;4850073;29;20037;-88
2022/08/29 03:28:14;;;;;;;6.05;3.50;;;;;;;20.58;100.00;100715.88;4883024;29;20082;-88
2022/08/29 03:30:46;;;;;;;5.72;3.78;;;;;;;20.58;100.00;100713.25;4886414;28;20047;-88
2022/08/29 03:39:30;;;;;;;8.10;3.60;;;;;;;20.53;100.00;100708.56;4976550;28;20045;-86
2022/08/29 03:41:56;;;;;;;5.25;3.17;;;;;;;20.57;100.00;100706.31;4979422;28;20030;-87
2022/08/29 03:44:22;;;;;;;3.55;3.25;;;;;;;20.59;100.00;100712.22;4980231;28;20042;-86
2022/08/29 03:46:51;;;;;;;5.25;3.20;;;;;;;20.61;100.00;100710.19;4969842;28;20296;-87
2022/08/29 03:49:16;;;;;;;5.90;3.53;;;;;;;20.61;100.00;100718.13;4973084;28;20065;-86
2022/08/29 03:51:45;;;;;;;5.05;2.80;;;;;;;20.61;100.00;100715.47;4987689;28;20412;-85
2022/08/29 03:54:13;;;;;;;3.97;3.47;;;;;;;20.54;100.00;100712.84;4981539;28;20344;-86
2022/08/29 03:56:54;;;;;;;10.73;4.25;;;;;;;20.48;100.00;100715.47;4983523;28;20054;-86
2022/08/29 04:02:57;;;;;;;3.80;2.90;;;;;;;20.46;100.00;100725.44;4983496;28;20034;-87
2022/08/29 04:19:43;;;;;;;6.72;3.67;;;;;;;20.56;100.00;100739.09;4951230;28;20050;-88
2022/08/29 04:22:12;;;;;;;5.22;2.80;;;;;;;20.59;100.00;100746.63;4946009;28;20035;-88
2022/08/29 04:24:58;;;;;;;5.18;3.03;;;;;;;20.57;100.00;100738.09;4945545;28;20112;-87
2022/08/29 04:31:20;;;;;;;;;;;;;;;;;;;;;
2022/08/29 04:33:56;;;;;;;5.30;3.00;;;;;;;20.54;100.00;100752.53;4948240;28;20054;-87
2022/08/29 04:36:46;;;;;;;;;;;;;;;;;;;;;
2022/08/29 04:39:49;;;;;;;4.70;3.78;;;;;;;20.56;100.00;100754.97;4951524;28;20348;-87
2022/08/29 05:03:24;;;;;;;6.47;3.90;;;;;;;20.61;100.00;100762.31;4878531;29;20435;-86
2022/08/29 05:06:16;;;;;;;7.88;3.78;;;;;;;20.61;100.00;100764.97;4854051;29;20215;-85
2022/08/29 05:08:45;;;;;;;6.65;4.60;;;;;;;20.62;100.00;100767.41;4858328;29;20037;-86
2022/08/29 05:11:16;;;;;;;9.30;5.00;;;;;;;20.64;100.00;100773.31;4847998;29;20045;-87
2022/08/29 05:13:43;;;;;;;5.43;4.05;;;;;;;20.66;100.00;100771.28;4870421;29;20051;-86
2022/08/29 05:16:12;;;;;;;6.38;4.25;;;;;;;20.66;100.00;100778.41;4852677;29;20080;-86
2022/08/29 05:18:38;;;;;;;8.02;4.20;;;;;;;20.61;100.00;100767.63;4866590;29;20543;-87
2022/08/29 05:21:07;;;;;;;4.28;3.25;;;;;;;20.59;100.00;100773.09;4850470;29;20258;-86
2022/08/29 05:23:53;;;;;;;9.07;3.45;;;;;;;20.55;100.00;100774.53;4890014;29;20036;-85
2022/08/29 05:26:22;;;;;;;11.48;4.05;;;;;;;20.59;100.00;100772.28;4896076;29;20075;-86
2022/08/29 05:28:48;;;;;;;8.07;3.70;;;;;;;20.56;100.00;100768.22;4903125;29;20050;-85
2022/08/29 05:31:14;;;;;;;6.15;3.58;;;;;;;20.55;100.00;100763.94;4880705;29;20115;-86
2022/08/29 05:33:40;;;;;;;7.85;4.07;;;;;;;20.55;100.00;100766.59;4875949;29;20104;-86
2022/08/29 05:36:06;;;;;;;4.32;3.92;;;;;;;20.57;100.00;100766.38;4884676;29;20048;-86
2022/08/29 05:38:34;;;;;;;9.90;4.25;;;;;;;20.60;100.00;100766.78;4887756;29;20402;-87
2022/08/29 05:41:00;;;;;;;12.35;4.82;;;;;;;20.58;100.00;100766.19;4906494;29;20215;-85
2022/08/29 05:43:26;;;;;;;4.97;3.30;;;;;;;20.60;100.00;100761.50;4891369;29;20138;-85
2022/08/29 05:46:03;;;;;;;7.25;4.45;;;;;;;20.63;100.00;100771.69;4881965;29;20051;-85
2022/08/29 05:48:30;;;;;;;9.70;4.15;;;;;;;20.69;100.00;100765.59;4900816;29;20048;-86
2022/08/29 05:50:56;;;;;;;5.05;4.20;;;;;;;20.74;100.00;100770.28;4907667;29;20048;-86
2022/08/29 05:53:22;;;;;;;4.40;4.00;;;;;;;20.78;100.00;100767.00;4896770;29;20046;-84
2022/08/29 05:55:47;;;;;;;8.85;3.85;;;;;;;20.80;100.00;100772.06;4901220;29;20040;-84
2022/08/29 05:58:12;;;;;;;4.82;4.28;;;;;;;20.78;100.00;100767.00;4918001;28;20042;-83
2022/08/29 06:00:40;;;;;;;6.18;3.45;;;;;;;20.80;100.00;100766.78;4996062;28;20348;-85
2022/08/29 06:03:06;;;;;;;8.18;4.82;;;;;;;20.83;100.00;100769.03;5000137;28;20512;-84
2022/08/29 06:05:31;;;;;;;5.15;4.53;;;;;;;20.84;100.00;100763.53;4998551;28;20038;-84
2022/08/29 06:07:57;;;;;;;5.80;3.75;;;;;;;20.90;100.00;100766.38;4972070;28;20030;-85
2022/08/29 06:10:22;;;;;;;7.32;3.92;;;;;;;20.96;100.00;100770.84;4997498;28;20034;-84
2022/08/29 06:12:50;;;;;;;6.13;4.03;;;;;;;20.99;100.00;100776.56;4985514;28;20487;-84
2022/08/29 06:15:19;;;;;;;7.38;4.43;;;;;;;21.08;100.00;100774.53;4994381;28;20038;-84
2022/08/29 06:17:44;;;;;;;5.68;3.75;;;;;;;21.16;100.00;100777.78;4989528;28;20517;-84
2022/08/29 06:20:10;;;;;;;7.28;5.20;;;;;;;21.17;100.00;100782.06;4996765;28;20049;-84
2022/08/29 06:22:37;;;;;;;7.72;4.30;;;;;;;21.19;100.00;100784.50;4989653;28;20030;-84
2022/08/29 06:25:03;;;;;;;8.10;4.90;;;;;;;21.24;100.00;100779.44;4989223;28;20046;-84
2022/08/29 06:27:28;;;;;;;7.68;4.47;;;;;;;21.27;100.00;100786.16;4994051;28;20034;-84
2022/08/29 06:29:54;;;;;;;5.00;3.65;;;;;;;21.28;100.00;100785.91;4991851;28;20116;-84
2022/08/29 06:32:19;;;;;;;12.10;3.80;;;;;;;21.31;100.00;100793.44;4993824;28;20108;-83
2022/08/29 06:34:45;;;;;;;4.88;3.97;;;;;;;21.34;100.00;100787.75;4991861;28;20036;-83
2022/08/29 06:37:10;;;;;;;8.75;4.05;;;;;;;21.34;100.00;100794.88;4988656;28;20828;-83
2022/08/29 06:39:35;;;;;;;5.22;4.25;;;;;;;21.33;100.00;100787.94;4979109;28;20065;-84
2022/08/29 06:42:01;;;;;;;7.40;4.07;;;;;;;21.28;100.00;100791.22;4999004;28;20486;-85
2022/08/29 06:44:29;;;;;;;5.03;3.72;;;;;;;21.32;100.00;100797.72;4998651;28;20478;-85
2022/08/29 06:46:55;;;;;;;6.25;3.97;;;;;;;21.38;100.00;100796.91;4978520;28;20041;-86
2022/08/29 06:49:20;;;;;;;4.72;3.17;;;;;;;21.48;100.00;100801.78;4985435;28;20030;-83
2022/08/29 06:51:49;;;;;;;5.72;4.55;;;;;;;21.64;100.00;100800.53;4982334;28;20034;-83
2022/08/29 06:54:16;;;;;;;4.60;3.45;;;;;;;21.78;100.00;100802.91;4978281;28;20104;-83
2022/08/29 06:56:42;;;;;;;8.75;4.40;;;;;;;21.91;100.00;100795.94;4979586;28;20041;-83
2022/08/29 06:59:08;;;;;;;8.20;4.00;;;;;;;22.00;100.00;100795.47;4984945;28;20093;-84
2022/08/29 07:01:34;;;;;;;6.35;4.28;;;;;;;22.08;100.00;100797.94;4984277;28;20034;-82
2022/08/29 07:03:59;;;;;;;10.60;3.60;;;;;;;22.24;100.00;100801.09;4991835;28;20042;-82
2022/08/29 07:06:26;;;;;;;7.57;4.03;;;;;;;22.36;100.00;100796.75;4992538;28;20402;-81
2022/08/29 07:08:52;;;;;;;7.68;3.85;;;;;;;22.56;100.00;100794.78;4989681;28;20033;-83
2022/08/29 07:11:17;;;;;;;5.75;3.33;;;;;;;22.77;100.00;100796.25;4992113;28;20120;-82
2022/08/29 07:13:43;;;;;;;5.90;3.83;;;;;;;22.92;100.00;100798.63;5001982;28;20030;-80
2022/08/29 07:16:11;;;;;;;8.32;3.60;;;;;;;23.12;98.71;100793.94;4999587;28;20034;-82
2022/08/29 07:18:37;;;;;;;4.65;3.38;;;;;;;23.22;96.79;100785.44;5007382;28;20113;-82
2022/08/29 07:21:07;;;;;;;9.13;3.97;;;;;;;23.19;96.45;100792.00;4998571;28;20050;-84
2022/08/29 07:23:35;;;;;;;7.75;3.25;;;;;;;23.22;97.20;100793.41;4973959;28;20054;-83
2022/08/29 07:26:11;;;;;;;6.35;3.40;;;;;;;23.28;96.66;100788.03;4996574;28;20739;-83
2022/08/29 07:28:37;;;;;;;8.35;3.13;;;;;;;23.40;96.98;100786.28;4983620;28;20556;-83
2022/08/29 07:31:04;;;;;;;4.40;3.67;;;;;;;23.53;95.95;100800.47;5003476;28;20437;-83
2022/08/29 07:33:30;;;;;;;6.47;3.13;;;;;;;23.54;96.70;100791.50;5006792;28;20044;-84
2022/08/29 07:35:57;;;;;;;6.53;3.75;;;;;;;23.63;97.44;100790.16;4998768;28;20042;-82
2022/08/29 07:38:22;;;;;;;3.65;3.35;;;;;;;23.88;97.08;100790.06;4992770;28;20034;-82
2022/08/29 07:40:56;;;;;;;4.03;3.00;;;;;;;24.04;95.08;100787.59;4991475;28;20038;-83
2022/08/29 07:43:21;;;;;;;3.78;3.30;;;;;;;24.05;95.38;100786.56;5000448;28;20449;-82
2022/08/29 07:45:47;;;;;;;3.85;3.28;;;;;;;24.07;96.02;100786.34;4987469;28;20052;-84
2022/08/29 07:48:12;;;;;;;4.88;3.30;;;;;;;24.12;96.08;100784.59;4993400;28;20129;-83
2022/08/29 07:50:40;;;;;;;3.50;3.20;;;;;;;24.15;93.89;100778.81;4995168;28;20038;-82
2022/08/29 07:53:06;;;;;;;4.25;3.08;;;;;;;24.21;93.32;100781.63;4994600;28;20026;-83
2022/08/29 07:55:32;;;;;;;3.42;2.88;;;;;;;24.34;93.04;100781.47;4993860;28;20139;-83
2022/08/29 07:57:57;;;;;;;4.60;3.05;;;;;;;24.47;92.50;100782.09;4992481;28;20360;-83
2022/08/29 08:00:23;;;;;;;6.47;3.38;;;;;;;24.64;90.14;100782.22;4997158;28;20421;-83
2022/08/29 08:02:49;;;;;;;6.70;4.18;;;;;;;24.79;89.33;100787.94;5000019;28;20069;-84
2022/08/29 08:05:14;;;;;;;5.95;3.25;;;;;;;25.05;88.44;100785.88;4975284;28;20079;-83
2022/08/29 08:07:41;;;;;;;4.30;2.97;;;;;;;25.25;86.86;100785.53;4998899;28;20037;-83
2022/08/29 08:10:07;;;;;;;6.18;3.08;;;;;;;25.40;85.71;100789.34;5003408;28;20099;-82
2022/08/29 08:12:33;;;;;;;4.20;2.47;;;;;;;25.45;84.63;100789.44;4996604;28;20026;-84
2022/08/29 08:15:02;;;;;;;5.38;2.65;;;;;;;25.50;84.64;100785.28;4999572;28;20034;-83
2022/08/29 08:17:27;;;;;;;2.90;2.28;;;;;;;25.57;84.67;100786.72;4991597;28;20049;-83
2022/08/29 08:19:52;;;;;;;3.45;2.60;;;;;;;25.67;85.39;100786.97;4998509;28;20398;-84
2022/08/29 08:22:18;;;;;;;6.97;2.85;;;;;;;25.86;84.33;100790.31;5002636;28;20065;-83
2022/08/29 08:24:43;;;;;;;4.63;2.38;;;;;;;26.07;84.20;100792.28;5002983;28;20030;-83
2022/08/29 08:27:09;;;;;;;5.63;2.45;;;;;;;26.19;83.26;100788.75;5001050;28;20500;-83
2022/08/29 08:29:34;;;;;;;4.63;2.70;;;;;;;26.29;82.22;100788.94;5000701;28;20036;-82
2022/08/29 08:32:00;;;;;;;2.38;2.20;;;;;;;26.22;81.29;100789.09;5002413;28;20075;-84
2022/08/29 08:34:27;;;;;;;4.80;2.40;;;;;;;26.07;82.00;100791.47;4977277;28;20026;-83
2022/08/29 08:36:53;;;;;;;4.30;2.83;;;;;;;26.09;81.94;100790.19;5004415;28;20477;-83
2022/08/29 08:39:19;;;;;;;4.60;2.05;;;;;;;26.19;81.84;100794.09;4981502;28;20044;-84
2022/08/29 08:41:50;;;;;;;2.80;1.75;;;;;;;26.35;81.12;100796.03;4979193;28;20543;-83
2022/08/29 08:44:22;;;;;;;2.42;2.13;;;;;;;26.46;79.26;100792.50;4998501;28;20049;-84
2022/08/29 08:46:51;;;;;;;3.90;2.55;;;;;;;26.54;81.12;100800.09;4987372;28;20034;-84
2022/08/29 08:49:26;;;;;;;2.97;1.90;;;;;;;26.41;78.84;100803.09;4974194;28;20078;-83
2022/08/29 08:52:05;;;;;;;2.67;1.80;;;;;;;26.16;79.04;100795.38;4991239;28;20037;-83
2022/08/29 08:54:40;;;;;;;2.72;1.60;;;;;;;26.02;78.96;100800.19;4991518;28;20569;-83
2022/08/29 08:57:08;;;;;;;2.95;1.65;;;;;;;26.07;79.69;100800.31;4991502;28;20034;-84
2022/08/29 08:59:48;;;;;;;4.25;2.40;;;;;;;26.24;78.67;100800.34;4991299;28;20113;-83
2022/08/29 09:02:14;;;;;;;2.45;1.73;;;;;;;26.17;81.12;100802.34;4991222;28;20109;-84
2022/08/29 09:05:04;;;;;;;3.22;1.80;;;;;;;26.15;77.76;100792.97;4991243;28;20130;-83
2022/08/29 09:07:58;;;;;;;3.47;1.88;;;;;;;25.94;77.82;100787.25;4991110;28;20042;-83
2022/08/29 09:10:39;;;;;;;1.88;1.55;;;;;;;26.01;78.32;100792.44;4991013;28;20132;-83
2022/08/29 09:13:29;;;;;;;2.75;1.67;;;;;;;26.02;78.91;100789.53;4991182;28;20027;-83
2022/08/29 09:15:59;;;;;;;3.90;2.28;;;;;;;26.06;80.18;100790.66;4991184;28;20050;-83
2022/08/29 09:18:38;;;;;;;2.80;2.28;;;;;;;25.99;79.57;100792.69;4973096;28;20612;-84
2022/08/29 09:21:10;;;;;;;3.10;1.75;;;;;;;26.06;80.05;100792.53;4991028;28;20041;-83
2022/08/29 09:23:44;;;;;;;2.22;1.40;;;;;;;26.05;79.25;100791.72;4990903;28;20101;-83
2022/08/29 09:26:11;;;;;;;2.35;1.80;;;;;;;26.03;78.77;100787.66;4990841;28;20040;-84
2022/08/29 09:28:37;;;;;;;4.38;2.00;;;;;;;26.08;79.13;100785.91;4990959;28;20077;-83
2022/08/29 09:31:21;;;;;;;3.63;1.92;;;;;;;26.23;75.50;100788.03;4990922;28;20393;-84
2022/08/29 09:34:02;;;;;;;2.55;1.65;;;;;;;26.38;73.88;100788.34;4992250;28;20085;-83
2022/08/29 09:36:48;;;;;;;1.40;1.30;;;;;;;26.37;72.73;100789.41;4981940;28;20375;-83
2022/08/29 09:39:25;;;;;;;5.32;2.10;;;;;;;26.34;72.66;100787.22;4990789;28;20044;-83
2022/08/29 09:42:12;;;;;;;2.85;1.38;;;;;;;26.38;72.00;100783.00;4990703;28;20033;-84
2022/08/29 09:44:39;;;;;;;3.50;1.77;;;;;;;26.38;75.16;100782.19;4990928;28;20034;-84
2022/08/29 09:47:09;;;;;;;2.13;1.55;;;;;;;26.26;74.41;100776.88;4990541;28;20030;-82
2022/08/29 09:49:38;;;;;;;3.97;1.52;;;;;;;26.21;75.36;100781.31;4995015;28;20085;-83
2022/08/29 09:52:10;;;;;;;3.88;1.80;;;;;;;26.09;73.51;100784.84;4991006;28;20072;-83
2022/08/29 09:54:37;;;;;;;2.72;1.20;;;;;;;26.03;74.35;100790.34;4990197;28;20033;-86
2022/08/29 09:57:17;;;;;;;1.63;1.35;;;;;;;26.08;73.33;100779.75;4990637;28;20631;-84
2022/08/29 09:59:48;;;;;;;4.03;1.83;;;;;;;26.22;72.34;100778.41;4990334;28;20026;-84
2022/08/29 10:02:27;;;;;;;2.45;1.48;;;;;;;26.11;70.88;100772.06;4974519;28;20074;-83
2022/08/29 10:05:00;;;;;;;2.85;2.03;;;;;;;26.13;71.36;100780.66;4979320;28;20097;-85
2022/08/29 10:07:32;;;;;;;2.58;1.52;;;;;;;26.36;71.42;100779.78;5001688;28;20029;-84
2022/08/29 10:10:06;;;;;;;3.60;1.88;;;;;;;26.39;70.88;100775.81;4993696;28;20034;-83
2022/08/29 10:12:50;;;;;;;3.28;1.85;;;;;;;26.37;70.20;100772.56;4990127;28;20033;-83
2022/08/29 10:15:24;;;;;;;2.88;2.00;;;;;;;26.35;73.34;100775.47;4989721;28;20038;-83
2022/08/29 10:18:26;;;;;;;2.97;1.50;;;;;;;26.32;74.02;100773.28;4989553;28;20046;-83
2022/08/29 10:20:58;;;;;;;3.35;1.70;;;;;;;26.42;75.79;100770.00;4989892;28;20030;-82
2022/08/29 10:23:23;;;;;;;1.63;1.52;;;;;;;26.44;74.77;100766.03;4988897;28;20041;-84
2022/08/29 10:25:49;;;;;;;3.60;1.35;;;;;;;26.39;73.58;100765.94;4989433;28;20393;-84
2022/08/29 10:28:33;;;;;;;1.65;1.35;;;;;;;26.31;71.63;100757.50;4989754;28;20039;-84
2022/08/29 10:31:09;;;;;;;2.13;1.52;;;;;;;26.37;73.14;100764.56;4996002;28;20034;-83
2022/08/29 10:34:06;;;;;;;2.13;1.38;;;;;;;26.27;70.29;100761.69;5000277;28;20033;-84
2022/08/29 10:36:36;;;;;;;3.83;1.65;;;;;;;26.36;71.31;100765.59;4989415;28;20058;-83
2022/08/29 10:39:10;;;;;;;3.22;1.33;;;;;;;26.32;69.04;100767.13;4990453;28;20037;-83
2022/08/29 10:41:49;;;;;;;2.67;1.40;;;;;;;26.33;68.78;100771.44;4980590;28;20022;-83
2022/08/29 10:44:23;;;;;;;1.95;1.52;;;;;;;26.31;72.64;100768.19;4996399;28;20553;-83
2022/08/29 10:46:56;;;;;;;2.53;1.50;;;;;;;26.33;71.73;100771.44;4997756;28;20107;-84
2022/08/29 10:49:47;;;;;;;2.78;1.88;;;;;;;26.55;72.84;100766.16;5006600;28;20033;-84
2022/08/29 10:52:43;;;;;;;1.75;1.27;;;;;;;26.74;70.41;100768.38;4994101;28;20033;-82
2022/08/29 10:55:18;;;;;;;2.97;2.13;;;;;;;26.97;71.15;100758.56;5005819;28;20445;-84
2022/08/29 10:57:58;;;;;;;4.65;1.27;;;;;;;26.98;71.59;100760.97;5008475;28;20508;-84
2022/08/29 11:00:37;;;;;;;3.22;1.13;;;;;;;26.93;71.65;100760.09;4990858;28;20515;-83
2022/08/29 11:03:14;;;;;;;3.15;1.20;;;;;;;26.91;71.49;100764.88;5008362;28;20503;-83
2022/08/29 11:05:45;;;;;;;2.40;0.90;;;;;;;26.90;68.31;100763.25;5004330;28;20065;-84
2022/08/29 11:08:28;;;;;;;1.40;0.90;;;;;;;26.92;66.87;100750.44;4995350;28;20030;-83
2022/08/29 11:10:54;;;;;;;3.08;0.90;;;;;;;27.03;69.04;100757.56;4993973;28;20026;-83
2022/08/29 11:13:28;;;;;;;1.73;0.90;;;;;;;27.21;66.62;100751.13;4990330;28;20036;-83
2022/08/29 11:16:17;;;;;;;1.33;0.90;;;;;;;26.99;62.33;100749.22;4997966;28;20509;-82
2022/08/29 11:18:48;;;;;;;1.95;1.15;;;;;;;27.01;64.10;100739.09;4988715;28;20100;-84
2022/08/29 11:21:16;;;;;;;1.38;0.73;;;;;;;27.36;62.66;100737.97;4988688;28;20473;-83
2022/08/29 11:23:45;;;;;;;2.17;0.75;;;;;;;27.43;62.35;100733.22;4999063;28;20037;-83
2022/08/29 11:26:23;;;;;;;1.38;0.68;;;;;;;27.41;61.53;100725.44;5007878;28;20040;-84
2022/08/29 11:28:56;;;;;;;1.33;0.70;;;;;;;27.47;61.01;100723.63;4979352;28;20087;-83
2022/08/29 11:31:48;;;;;;;1.00;0.60;;;;;;;27.48;57.83;100716.41;5001819;28;20368;-84
2022/08/29 11:34:40;;;;;;;0.90;0.75;;;;;;;27.48;57.56;100721.75;5006667;28;20368;-84
2022/08/29 11:37:24;;;;;;;1.00;0.60;;;;;;;27.53;60.65;100722.63;5008034;28;20034;-83
2022/08/29 11:40:02;;;;;;;1.88;0.50;;;;;;;27.81;59.30;100718.97;5008125;28;20378;-83
2022/08/29 11:42:32;;;;;;;2.55;0.40;;;;;;;27.85;59.42;100719.28;5004760;28;21894;-82
2022/08/29 11:44:59;;;;;;;1.23;0.60;;;;;;;27.77;59.48;100717.06;5007304;28;20398;-83
2022/08/29 11:47:57;;;;;;;1.70;0.60;;;;;;;27.66;57.65;100714.25;5007483;28;20033;-84
2022/08/29 11:50:33;;;;;;;0.82;0.50;;;;;;;27.76;58.18;100713.56;4988747;28;20057;-83
2022/08/29 11:53:32;;;;;;;1.58;0.60;;;;;;;27.78;57.17;100711.44;4999560;28;20065;-83
2022/08/29 11:56:13;;;;;;;1.00;0.50;;;;;;;27.79;55.64;100713.06;4988794;28;20047;-84
2022/08/29 11:58:44;;;;;;;1.15;0.43;;;;;;;27.84;60.12;100715.78;5003020;28;20544;-84
2022/08/29 12:01:36;;;;;;;1.00;0.52;;;;;;;27.78;58.35;100700.75;5014935;28;20033;-84
2022/08/29 12:04:07;;;;;;;1.00;0.52;;;;;;;27.81;60.97;100715.50;5002173;28;20060;-82
2022/08/29 12:06:41;;;;;;;2.33;0.50;;;;;;;27.78;61.64;100707.97;5008306;28;20040;-81
2022/08/29 12:09:12;;;;;;;2.43;0.60;;;;;;;27.77;62.09;100703.66;5000488;28;20033;-83
2022/08/29 12:11:59;;;;;;;2.00;0.60;;;;;;;27.67;61.08;100707.84;5005777;28;20292;-82
2022/08/29 12:14:36;;;;;;;0.98;0.70;;;;;;;27.65;61.81;100711.84;4990567;28;20378;-83
2022/08/29 12:17:05;;;;;;;3.15;0.70;;;;;;;27.68;60.15;100700.63;5007884;28;20074;-83
2022/08/29 12:19:54;;;;;;;1.77;1.15;;;;;;;27.72;60.16;100701.75;4987821;28;20034;-83
2022/08/29 12:22:54;;;;;;;2.45;0.70;;;;;;;27.92;59.10;100701.91;5007705;28;20029;-83
2022/08/29 12:25:43;;;;;;;3.17;0.80;;;;;;;27.75;59.24;100699.38;4995249;28;20571;-87
2022/08/29 12:28:16;;;;;;;2.15;0.95;;;;;;;27.66;61.25;100695.53;4988262;28;20367;-88
2022/08/29 12:30:50;;;;;;;2.45;0.90;;;;;;;27.84;61.08;100693.56;5004616;28;20523;-87
2022/08/29 12:33:35;;;;;;;3.67;0.80;;;;;;;27.70;62.91;100698.50;4990137;28;20038;-87
2022/08/29 12:36:01;;;;;;;3.40;1.02;;;;;;;27.54;64.83;100702.03;4997762;28;20026;-87
2022/08/29 12:39:00;;;;;;;1.05;0.95;;;;;;;27.56;60.70;100729.34;4975932;28;20034;-87
2022/08/29 12:41:26;;;;;;;1.33;0.90;;;;;;;27.46;63.92;100721.22;4924849;29;20159;-88
2022/08/29 12:43:56;;;;;;;2.85;0.88;;;;;;;27.13;66.85;100752.38;4942703;29;20474;-88
2022/08/29 12:46:31;;;;;;;2.10;1.20;;;;;;;26.58;71.01;100750.47;4947479;28;20423;-88
2022/08/29 12:49:13;;;;;;;4.55;0.90;;;;;;;25.36;73.37;100750.84;4949405;29;20110;-87
2022/08/29 12:51:41;;;;;;;2.47;0.52;;;;;;;24.62;78.78;100732.88;4937881;29;20051;-88
2022/08/29 12:54:11;;;;;;;2.70;0.85;;;;;;;24.37;80.76;100743.75;4950097;29;20035;-88
2022/08/29 12:56:47;;;;;;;3.30;0.60;;;;;;;24.17;82.05;100738.66;4948971;29;20095;-88
2022/08/29 12:59:20;;;;;;;3.38;0.85;;;;;;;23.79;83.50;100739.81;4946520;29;20530;-90
2022/08/29 13:01:52;;;;;;;2.53;0.47;;;;;;;23.14;87.89;100734.22;4932271;29;20027;-87
2022/08/29 13:04:32;;;;;;;3.45;0.60;;;;;;;22.55;90.83;100725.97;4941264;29;20087;-87
2022/08/29 13:07:14;;;;;;;1.33;0.60;;;;;;;22.38;93.05;100728.31;4936604;29;20039;-88
2022/08/29 13:09:55;;;;;;;3.17;0.40;;;;;;;22.31;90.41;100746.13;4939971;29;20031;-89
2022/08/29 13:12:26;;;;;;;3.55;0.60;;;;;;;22.21;91.52;100743.97;4918382;29;20080;-91
2022/08/29 13:15:03;;;;;;;1.10;0.68;;;;;;;22.18;92.62;100741.75;4930078;29;20031;-86
2022/08/29 13:17:38;;;;;;;1.27;0.40;;;;;;;21.90;93.61;100739.41;4957397;28;20046;-89
2022/08/29 13:21:04;;;;;;;2.80;0.40;;;;;;;21.69;95.78;100737.09;4993833;28;20076;-89
2022/08/29 13:23:35;;;;;;;5.70;0.60;;;;;;;21.62;96.59;100721.19;4992850;28;20037;-86
2022/08/29 13:26:17;;;;;;;4.07;0.52;;;;;;;21.66;97.16;100713.63;5009813;28;20029;-89
2022/08/29 13:29:18;;;;;;;1.30;0.60;;;;;;;21.74;96.73;100706.22;4998127;28;20033;-87
2022/08/29 13:31:43;;;;;;;1.90;0.70;;;;;;;21.85;96.12;100707.41;4898252;29;20031;-87
2022/08/29 13:34:19;;;;;;;1.60;0.75;;;;;;;21.87;96.11;100715.97;4921813;29;20110;-89
2022/08/29 13:36:50;;;;;;;2.08;0.73;;;;;;;21.85;95.71;100713.53;4931752;29;20031;-89
2022/08/29 13:39:16;;;;;;;3.28;0.70;;;;;;;21.88;96.59;100709.63;4915475;29;20079;-83
2022/08/29 13:41:56;;;;;;;4.10;0.70;;;;;;;21.76;98.09;100708.66;4920785;29;20032;-92
2022/08/29 13:44:24;;;;;;;1.88;0.90;;;;;;;21.69;98.05;100706.06;4913474;29;20039;-88
2022/08/29 13:47:03;;;;;;;;;;;;;;;;;;;;;
2022/08/29 13:49:34;;;;;;;0.68;0.40;;;;;;;21.77;97.35;100703.16;4927234;29;20032;-88
2022/08/29 13:52:06;;;;;;;1.55;0.73;;;;;;;21.92;95.65;100697.56;4919374;29;20048;-91
2022/08/29 13:54:41;;;;;;;0.90;0.50;;;;;;;22.08;95.36;100706.91;4905758;29;20031;-87
2022/08/29 13:57:28;;;;;;;;;;;;;;;22.10;94.61;100710.16;4917386;29;20027;-88
2022/08/29 13:59:54;;;;;;;1.77;0.50;;;;;;;22.22;96.79;100723.53;4898516;29;19915;-91
2022/08/29 14:02:19;;;;;;;2.78;0.57;;;;;;;22.21;97.81;100729.91;4917394;29;20028;-89
2022/08/29 14:04:48;;;;;;;1.58;0.73;;;;;;;22.24;98.25;100742.72;4925509;28;20491;-89
2022/08/29 14:07:43;;;;;;;1.20;0.40;;;;;;;22.38;95.25;100744.25;4995759;28;20390;-89
2022/08/29 14:10:12;;;;;;;1.35;0.57;;;;;;;22.37;97.14;100748.75;4986240;28;20044;-88
2022/08/29 14:12:38;;;;;;;1.42;0.70;;;;;;;22.40;96.68;100750.16;4999422;28;20080;-89
2022/08/29 14:15:06;;;;;;;1.40;0.43;;;;;;;22.52;96.32;100745.78;4995900;28;20037;-90